createdAt,value
2023-06-04T00:00:04.418Z,14.61
2023-06-04T00:01:04.535Z,14.63
2023-06-04T00:02:04.419Z,14.61
2023-06-04T00:03:04.498Z,14.59
2023-06-04T00:04:04.410Z,14.58
2023-06-04T00:05:04.412Z,14.55
2023-06-04T00:06:04.351Z,14.56
2023-06-04T00:07:04.316Z,14.55
2023-06-04T00:08:04.298Z,14.52
2023-06-04T00:09:04.362Z,14.51
2023-06-04T00:10:04.316Z,14.49
2023-06-04T00:11:04.501Z,14.48
2023-06-04T00:12:04.313Z,14.48
2023-06-04T00:13:04.304Z,14.45
2023-06-04T00:14:04.250Z,14.45
2023-06-04T00:15:04.286Z,14.41
2023-06-04T00:16:04.271Z,14.41
2023-06-04T00:17:04.206Z,14.41
2023-06-04T00:18:04.282Z,14.40
2023-06-04T00:19:04.166Z,14.38
2023-06-04T00:20:04.252Z,14.37
2023-06-04T00:21:04.257Z,14.37
2023-06-04T00:22:04.140Z,14.36
2023-06-04T00:23:04.153Z,14.34
2023-06-04T00:24:04.166Z,14.33
2023-06-04T00:25:04.212Z,14.33
2023-06-04T00:26:04.158Z,14.31
2023-06-04T00:27:04.116Z,14.30
2023-06-04T00:28:04.108Z,14.28
2023-06-04T00:29:04.131Z,14.28
2023-06-04T00:30:04.101Z,14.27
2023-06-04T00:31:04.219Z,14.26
2023-06-04T00:32:04.232Z,14.26
2023-06-04T00:33:04.182Z,14.26
2023-06-04T00:34:04.054Z,14.22
2023-06-04T00:35:04.078Z,14.22
2023-06-04T00:36:04.083Z,14.18
2023-06-04T00:37:03.975Z,14.15
2023-06-04T00:38:04.018Z,14.13
2023-06-04T00:39:03.975Z,14.12
2023-06-04T00:40:03.985Z,14.11
2023-06-04T00:41:03.997Z,14.11
2023-06-04T00:42:03.929Z,14.11
2023-06-04T00:43:03.922Z,14.05
2023-06-04T00:44:03.968Z,14.05
2023-06-04T00:45:03.877Z,14.04
2023-06-04T00:46:03.992Z,14.01
2023-06-04T00:47:03.946Z,14.01
2023-06-04T00:48:03.917Z,14.00
2023-06-04T00:49:03.882Z,14.00
2023-06-04T00:50:03.871Z,14.00
2023-06-04T00:51:03.912Z,13.98
2023-06-04T00:52:03.916Z,13.96
2023-06-04T00:53:03.833Z,13.94
2023-06-04T00:54:03.810Z,13.93
2023-06-04T00:55:03.802Z,13.94
2023-06-04T00:56:03.883Z,13.93
2023-06-04T00:57:03.830Z,13.91
2023-06-04T00:58:03.739Z,13.93
2023-06-04T00:59:03.770Z,13.93
2023-06-04T01:00:03.822Z,13.91
2023-06-04T01:01:03.777Z,13.86
2023-06-04T01:02:03.768Z,13.86
2023-06-04T01:03:03.771Z,13.83
2023-06-04T01:04:03.769Z,13.83
2023-06-04T01:05:03.719Z,13.82
2023-06-04T01:06:03.712Z,13.80
2023-06-04T01:07:03.669Z,13.80
2023-06-04T01:08:03.659Z,13.79
2023-06-04T01:09:03.636Z,13.80
2023-06-04T01:10:03.647Z,13.78
2023-06-04T01:11:03.672Z,13.76
2023-06-04T01:12:03.624Z,13.78
2023-06-04T01:13:03.647Z,13.76
2023-06-04T01:14:03.585Z,13.73
2023-06-04T01:15:03.619Z,13.72
2023-06-04T01:16:03.570Z,13.71
2023-06-04T01:17:03.606Z,13.71
2023-06-04T01:18:03.575Z,13.68
2023-06-04T01:19:03.641Z,13.68
2023-06-04T01:20:03.523Z,13.65
2023-06-04T01:21:03.496Z,13.65
2023-06-04T01:22:03.516Z,13.64
2023-06-04T01:23:03.485Z,13.64
2023-06-04T01:24:03.695Z,13.63
2023-06-04T01:25:03.487Z,13.63
2023-06-04T01:26:03.489Z,13.61
2023-06-04T01:27:03.480Z,13.61
2023-06-04T01:28:03.417Z,13.60
2023-06-04T01:29:03.415Z,13.57
2023-06-04T01:30:03.407Z,13.55
2023-06-04T01:31:03.444Z,13.54
2023-06-04T01:32:03.396Z,13.53
2023-06-04T01:33:03.473Z,13.51
2023-06-04T01:34:03.370Z,13.51
2023-06-04T01:35:03.380Z,13.47
2023-06-04T01:36:03.346Z,13.47
2023-06-04T01:37:03.330Z,13.46
2023-06-04T01:38:03.303Z,13.45
2023-06-04T01:39:03.310Z,13.43
2023-06-04T01:40:03.348Z,13.42
2023-06-04T01:41:03.261Z,13.42
2023-06-04T01:42:03.301Z,13.39
2023-06-04T01:43:03.328Z,13.39
2023-06-04T01:44:03.321Z,13.38
2023-06-04T01:45:03.230Z,13.36
2023-06-04T01:46:03.287Z,13.35
2023-06-04T01:47:03.211Z,13.32
2023-06-04T01:48:03.345Z,13.30
2023-06-04T01:49:03.222Z,13.30
2023-06-04T01:50:03.248Z,13.29
2023-06-04T01:51:03.313Z,13.29
2023-06-04T01:52:03.251Z,13.26
2023-06-04T01:53:03.175Z,13.24
2023-06-04T01:54:03.237Z,13.24
2023-06-04T01:55:03.166Z,13.21
2023-06-04T01:56:03.099Z,13.20
2023-06-04T01:57:03.116Z,13.19
2023-06-04T01:58:03.081Z,13.17
2023-06-04T01:59:03.111Z,13.17
2023-06-04T02:00:03.063Z,13.14
2023-06-04T02:01:03.050Z,13.13
2023-06-04T02:02:03.151Z,13.11
2023-06-04T02:03:03.164Z,13.11
2023-06-04T02:04:03.189Z,13.09
2023-06-04T02:05:02.968Z,13.06
2023-06-04T02:06:03.052Z,13.05
2023-06-04T02:07:02.967Z,13.04
2023-06-04T02:08:03.022Z,13.02
2023-06-04T02:09:02.980Z,13.01
2023-06-04T02:10:02.955Z,13.01
2023-06-04T02:11:02.950Z,12.99
2023-06-04T02:12:02.938Z,13.01
2023-06-04T02:13:02.915Z,12.98
2023-06-04T02:14:03.064Z,12.98
2023-06-04T02:15:02.938Z,12.98
2023-06-04T02:16:02.957Z,12.96
2023-06-04T02:17:02.849Z,12.95
2023-06-04T02:18:02.936Z,12.91
2023-06-04T02:19:02.856Z,12.93
2023-06-04T02:20:02.893Z,12.91
2023-06-04T02:21:02.886Z,12.90
2023-06-04T02:22:02.846Z,12.88
2023-06-04T02:23:02.825Z,12.87
2023-06-04T02:24:02.954Z,12.86
2023-06-04T02:25:02.830Z,12.86
2023-06-04T02:26:02.815Z,12.83
2023-06-04T02:27:02.787Z,12.83
2023-06-04T02:28:02.798Z,12.81
2023-06-04T02:29:02.742Z,12.80
2023-06-04T02:30:02.802Z,12.80
2023-06-04T02:31:02.778Z,12.79
2023-06-04T02:32:02.772Z,12.76
2023-06-04T02:33:02.757Z,12.76
2023-06-04T02:34:02.709Z,12.73
2023-06-04T02:35:02.708Z,12.72
2023-06-04T02:36:02.728Z,12.71
2023-06-04T02:37:02.632Z,12.69
2023-06-04T02:38:02.649Z,12.66
2023-06-04T02:39:02.653Z,12.66
2023-06-04T02:40:02.605Z,12.65
2023-06-04T02:41:02.621Z,12.63
2023-06-04T02:42:02.556Z,12.61
2023-06-04T02:43:02.594Z,12.61
2023-06-04T02:44:02.674Z,12.55
2023-06-04T02:45:02.533Z,12.55
2023-06-04T02:46:02.604Z,12.53
2023-06-04T02:47:02.482Z,12.54
2023-06-04T02:48:02.515Z,12.53
2023-06-04T02:49:02.467Z,12.51
2023-06-04T02:50:02.465Z,12.53
2023-06-04T02:51:02.472Z,12.50
2023-06-04T02:52:02.455Z,12.50
2023-06-04T02:53:02.427Z,12.47
2023-06-04T02:54:02.418Z,12.47
2023-06-04T02:55:02.448Z,12.46
2023-06-04T02:56:02.411Z,12.46
2023-06-04T02:57:02.392Z,12.43
2023-06-04T02:58:02.384Z,12.44
2023-06-04T02:59:02.426Z,12.43
2023-06-04T03:00:02.394Z,12.43
2023-06-04T03:01:02.384Z,12.41
2023-06-04T03:02:02.333Z,12.43
2023-06-04T03:03:03.026Z,12.43
2023-06-04T03:04:02.384Z,12.43
2023-06-04T03:05:02.322Z,12.43
2023-06-04T03:06:02.295Z,12.44
2023-06-04T03:07:02.277Z,12.46
2023-06-04T03:08:02.295Z,12.44
2023-06-04T03:09:02.288Z,12.44
2023-06-04T03:10:02.243Z,12.43
2023-06-04T03:11:02.242Z,12.41
2023-06-04T03:12:02.230Z,12.41
2023-06-04T03:13:02.204Z,12.41
2023-06-04T03:14:02.201Z,12.41
2023-06-04T03:15:02.246Z,12.40
2023-06-04T03:16:02.310Z,12.38
2023-06-04T03:17:02.181Z,12.38
2023-06-04T03:18:02.269Z,12.36
2023-06-04T03:19:02.157Z,12.35
2023-06-04T03:20:02.202Z,12.36
2023-06-04T03:21:02.176Z,12.36
2023-06-04T03:22:02.141Z,12.36
2023-06-04T03:23:02.111Z,12.33
2023-06-04T03:24:02.198Z,12.33
2023-06-04T03:25:02.100Z,12.33
2023-06-04T03:26:02.072Z,12.29
2023-06-04T03:27:02.047Z,12.28
2023-06-04T03:28:02.096Z,12.26
2023-06-04T03:29:02.037Z,12.25
2023-06-04T03:30:02.012Z,12.25
2023-06-04T03:31:02.049Z,12.25
2023-06-04T03:32:02.012Z,12.23
2023-06-04T03:33:02.019Z,12.22
2023-06-04T03:34:02.085Z,12.22
2023-06-04T03:35:02.006Z,12.21
2023-06-04T03:36:01.971Z,12.22
2023-06-04T03:37:01.947Z,12.21
2023-06-04T03:38:01.955Z,12.18
2023-06-04T03:39:02.085Z,12.18
2023-06-04T03:40:01.959Z,12.17
2023-06-04T03:41:01.899Z,12.15
2023-06-04T03:42:01.930Z,12.17
2023-06-04T03:43:01.903Z,12.17
2023-06-04T03:44:01.893Z,12.15
2023-06-04T03:45:01.886Z,12.14
2023-06-04T03:46:01.844Z,12.13
2023-06-04T03:47:01.951Z,12.13
2023-06-04T03:48:01.953Z,12.13
2023-06-04T03:49:01.815Z,12.11
2023-06-04T03:50:01.840Z,12.11
2023-06-04T03:51:01.856Z,12.11
2023-06-04T03:52:01.805Z,12.10
2023-06-04T03:53:01.834Z,12.08
2023-06-04T03:54:01.802Z,12.07
2023-06-04T03:55:01.781Z,12.07
2023-06-04T03:56:01.786Z,12.07
2023-06-04T03:57:01.788Z,12.05
2023-06-04T03:58:01.765Z,12.05
2023-06-04T03:59:01.805Z,12.05
2023-06-04T04:00:01.768Z,12.04
2023-06-04T04:01:01.768Z,12.04
2023-06-04T04:02:01.666Z,12.04
2023-06-04T04:03:01.763Z,12.04
2023-06-04T04:04:01.708Z,12.03
2023-06-04T04:05:02.348Z,12.03
2023-06-04T04:06:01.921Z,12.00
2023-06-04T04:07:01.595Z,12.03
2023-06-04T04:08:01.622Z,12.03
2023-06-04T04:09:01.691Z,12.03
2023-06-04T04:10:01.593Z,12.04
2023-06-04T04:11:01.573Z,12.04
2023-06-04T04:12:01.549Z,12.07
2023-06-04T04:13:01.669Z,12.07
2023-06-04T04:14:01.584Z,12.10
2023-06-04T04:15:01.572Z,12.10
2023-06-04T04:16:01.524Z,12.08
2023-06-04T04:17:01.605Z,12.10
2023-06-04T04:18:01.640Z,12.11
2023-06-04T04:19:01.477Z,12.13
2023-06-04T04:20:01.475Z,12.13
2023-06-04T04:21:01.476Z,12.14
2023-06-04T04:22:01.497Z,12.18
2023-06-04T04:23:01.445Z,12.18
2023-06-04T04:24:01.689Z,12.23
2023-06-04T04:25:01.442Z,12.28
2023-06-04T04:26:01.463Z,12.26
2023-06-04T04:27:01.406Z,12.29
2023-06-04T04:28:01.405Z,12.30
2023-06-04T04:29:01.420Z,12.33
2023-06-04T04:30:01.413Z,12.38
2023-06-04T04:31:01.482Z,12.44
2023-06-04T04:32:01.346Z,12.43
2023-06-04T04:33:01.428Z,12.47
2023-06-04T04:34:01.376Z,12.48
2023-06-04T04:35:01.327Z,12.47
2023-06-04T04:36:01.312Z,12.50
2023-06-04T04:37:01.311Z,12.51
2023-06-04T04:38:01.332Z,12.51
2023-06-04T04:39:01.261Z,12.53
2023-06-04T04:40:01.245Z,12.54
2023-06-04T04:41:01.250Z,12.54
2023-06-04T04:42:01.231Z,12.55
2023-06-04T04:43:01.195Z,12.58
2023-06-04T04:44:01.262Z,12.59
2023-06-04T04:45:01.229Z,12.58
2023-06-04T04:46:01.216Z,12.59
2023-06-04T04:47:01.164Z,12.63
2023-06-04T04:48:01.300Z,12.66
2023-06-04T04:49:01.175Z,12.69
2023-06-04T04:50:01.144Z,12.72
2023-06-04T04:51:01.171Z,12.73
2023-06-04T04:52:01.140Z,12.73
2023-06-04T04:53:01.138Z,12.76
2023-06-04T04:54:01.062Z,12.77
2023-06-04T04:55:01.088Z,12.76
2023-06-04T04:56:01.085Z,12.76
2023-06-04T04:57:12.824Z,12.77
2023-06-04T04:58:01.067Z,12.72
2023-06-04T04:59:01.019Z,12.69
2023-06-04T05:00:01.096Z,12.68
2023-06-04T05:01:01.125Z,12.66
2023-06-04T05:02:01.070Z,12.65
2023-06-04T05:03:01.121Z,12.68
2023-06-04T05:04:02.964Z,12.68
2023-06-04T05:05:00.997Z,12.71
2023-06-04T05:06:00.939Z,12.73
2023-06-04T05:07:01.213Z,12.77
2023-06-04T05:08:00.939Z,12.81
2023-06-04T05:09:01.191Z,12.80
2023-06-04T05:10:00.940Z,12.81
2023-06-04T05:11:00.930Z,12.83
2023-06-04T05:12:00.860Z,12.86
2023-06-04T05:13:00.867Z,12.87
2023-06-04T05:14:00.860Z,12.91
2023-06-04T05:15:00.846Z,12.93
2023-06-04T05:16:00.988Z,12.96
2023-06-04T05:17:00.835Z,12.95
2023-06-04T05:18:01.342Z,12.91
2023-06-04T05:19:00.811Z,12.93
2023-06-04T05:20:00.802Z,12.93
2023-06-04T05:21:01.059Z,12.93
2023-06-04T05:22:00.761Z,12.93
2023-06-04T05:23:00.797Z,12.99
2023-06-04T05:24:00.887Z,13.06
2023-06-04T05:25:00.723Z,13.11
2023-06-04T05:26:00.751Z,13.13
2023-06-04T05:27:00.716Z,13.11
2023-06-04T05:28:00.744Z,13.09
2023-06-04T05:29:00.672Z,13.09
2023-06-04T05:30:00.695Z,13.05
2023-06-04T05:31:00.741Z,13.04
2023-06-04T05:32:00.710Z,13.05
2023-06-04T05:33:00.726Z,13.06
2023-06-04T05:34:00.649Z,13.09
2023-06-04T05:35:00.629Z,13.13
2023-06-04T05:36:00.601Z,13.16
2023-06-04T05:37:00.616Z,13.20
2023-06-04T05:38:00.602Z,13.20
2023-06-04T05:39:00.572Z,13.23
2023-06-04T05:40:00.584Z,13.29
2023-06-04T05:41:00.548Z,13.35
2023-06-04T05:42:00.551Z,13.39
2023-06-04T05:43:00.556Z,13.45
2023-06-04T05:44:00.538Z,13.47
2023-06-04T05:45:00.511Z,13.49
2023-06-04T05:46:00.538Z,13.49
2023-06-04T05:47:00.464Z,13.49
2023-06-04T05:48:02.095Z,13.53
2023-06-04T05:49:00.469Z,13.57
2023-06-04T05:50:00.450Z,13.60
2023-06-04T05:51:00.444Z,13.63
2023-06-04T05:52:00.543Z,13.64
2023-06-04T05:53:00.409Z,13.64
2023-06-04T05:54:00.432Z,13.67
2023-06-04T05:55:00.436Z,13.75
2023-06-04T05:56:00.378Z,13.82
2023-06-04T05:57:00.381Z,13.88
2023-06-04T05:58:00.352Z,13.90
2023-06-04T05:59:00.362Z,13.90
2023-06-04T06:00:00.379Z,13.94
2023-06-04T06:01:00.315Z,13.97
2023-06-04T06:02:00.426Z,13.98
2023-06-04T06:03:00.415Z,13.97
2023-06-04T06:04:00.407Z,14.00
2023-06-04T06:05:00.318Z,14.03
2023-06-04T06:06:00.252Z,14.04
2023-06-04T06:07:00.269Z,14.08
2023-06-04T06:08:00.252Z,14.09
2023-06-04T06:09:00.245Z,14.09
2023-06-04T06:10:00.206Z,14.12
2023-06-04T06:11:00.221Z,14.13
2023-06-04T06:12:00.225Z,14.18
2023-06-04T06:13:00.198Z,14.19
2023-06-04T06:14:00.177Z,14.23
2023-06-04T06:15:00.200Z,14.30
2023-06-04T06:16:00.208Z,14.34
2023-06-04T06:17:00.141Z,14.41
2023-06-04T06:18:00.226Z,14.44
2023-06-04T06:19:00.153Z,14.46
2023-06-04T06:20:00.154Z,14.49
2023-06-04T06:21:00.130Z,14.53
2023-06-04T06:22:00.161Z,14.58
2023-06-04T06:23:00.162Z,14.63
2023-06-04T06:24:00.226Z,14.67
2023-06-04T06:25:00.084Z,14.70
2023-06-04T06:26:00.080Z,14.74
2023-06-04T06:27:00.130Z,14.79
2023-06-04T06:28:00.040Z,14.83
2023-06-04T06:29:00.021Z,14.93
2023-06-04T06:30:00.030Z,15.03
2023-06-04T06:31:00.040Z,15.07
2023-06-04T06:32:00.048Z,15.11
2023-06-04T06:32:59.998Z,15.19
2023-06-04T06:33:59.977Z,15.23
2023-06-04T06:34:59.974Z,15.25
2023-06-04T06:35:59.951Z,15.29
2023-06-04T06:37:00.017Z,15.35
2023-06-04T06:37:59.950Z,15.40
2023-06-04T06:38:59.942Z,15.43
2023-06-04T06:39:59.894Z,15.44
2023-06-04T06:40:59.894Z,15.50
2023-06-04T06:42:00.083Z,15.56
2023-06-04T06:42:59.872Z,15.60
2023-06-04T06:43:59.875Z,15.68
2023-06-04T06:44:59.843Z,15.72
2023-06-04T06:45:59.938Z,15.76
2023-06-04T06:46:59.921Z,15.78
2023-06-04T06:47:59.869Z,15.84
2023-06-04T06:48:59.866Z,15.90
2023-06-04T06:49:59.803Z,15.96
2023-06-04T06:50:59.771Z,16.06
2023-06-04T06:51:59.751Z,16.13
2023-06-04T06:52:59.837Z,16.21
2023-06-04T06:53:59.759Z,16.24
2023-06-04T06:54:59.748Z,16.29
2023-06-04T06:55:59.813Z,16.33
2023-06-04T06:56:59.713Z,16.33
2023-06-04T06:57:59.710Z,16.36
2023-06-04T06:58:59.723Z,16.44
2023-06-04T06:59:59.682Z,16.51
2023-06-04T07:00:59.808Z,16.61
2023-06-04T07:01:59.684Z,16.65
2023-06-04T07:02:59.827Z,16.72
2023-06-04T07:03:59.632Z,16.74
2023-06-04T07:04:59.647Z,16.76
2023-06-04T07:05:59.650Z,16.79
2023-06-04T07:06:59.668Z,16.82
2023-06-04T07:07:59.581Z,16.87
2023-06-04T07:08:59.628Z,16.88
2023-06-04T07:09:59.576Z,16.91
2023-06-04T07:10:59.584Z,16.97
2023-06-04T07:11:59.575Z,16.94
2023-06-04T07:12:59.558Z,16.97
2023-06-04T07:13:59.560Z,16.97
2023-06-04T07:14:59.556Z,17.02
2023-06-04T07:15:59.494Z,17.06
2023-06-04T07:16:59.579Z,17.12
2023-06-04T07:17:59.550Z,17.20
2023-06-04T07:18:59.489Z,17.25
2023-06-04T07:19:59.472Z,17.25
2023-06-04T07:20:59.478Z,17.24
2023-06-04T07:21:59.430Z,17.27
2023-06-04T07:22:59.494Z,17.27
2023-06-04T07:23:59.454Z,17.28
2023-06-04T07:24:59.476Z,17.30
2023-06-04T07:25:59.379Z,17.32
2023-06-04T07:26:59.386Z,17.38
2023-06-04T07:27:59.420Z,17.38
2023-06-04T07:28:59.477Z,17.39
2023-06-04T07:29:59.365Z,17.45
2023-06-04T07:30:59.361Z,17.47
2023-06-04T07:31:59.399Z,17.50
2023-06-04T07:32:59.368Z,17.54
2023-06-04T07:33:59.632Z,17.63
2023-06-04T07:34:59.318Z,17.66
2023-06-04T07:35:59.292Z,17.72
2023-06-04T07:36:59.273Z,17.73
2023-06-04T07:37:59.307Z,17.76
2023-06-04T07:38:59.263Z,17.76
2023-06-04T07:39:59.237Z,17.79
2023-06-04T07:40:59.961Z,17.87
2023-06-04T07:41:59.281Z,17.94
2023-06-04T07:42:59.239Z,18.03
2023-06-04T07:43:59.221Z,18.08
2023-06-04T07:44:59.239Z,18.03
2023-06-04T07:45:59.224Z,18.03
2023-06-04T07:46:59.173Z,17.97
2023-06-04T07:47:59.198Z,18.02
2023-06-04T07:48:59.157Z,18.05
2023-06-04T07:50:03.290Z,18.06
2023-06-04T07:50:59.117Z,18.12
2023-06-04T07:51:59.131Z,18.15
2023-06-04T07:52:59.131Z,18.20
2023-06-04T07:53:59.172Z,18.26
2023-06-04T07:54:59.107Z,18.30
2023-06-04T07:55:59.055Z,18.34
2023-06-04T07:56:59.109Z,18.36
2023-06-04T07:57:59.115Z,18.38
2023-06-04T07:58:59.117Z,18.39
2023-06-04T07:59:59.009Z,18.43
2023-06-04T08:00:59.018Z,18.43
2023-06-04T08:01:59.038Z,18.49
2023-06-04T08:02:59.056Z,18.56
2023-06-04T08:03:59.162Z,18.60
2023-06-04T08:04:59.093Z,18.60
2023-06-04T08:05:58.987Z,18.64
2023-06-04T08:06:58.958Z,18.70
2023-06-04T08:07:58.929Z,18.76
2023-06-04T08:08:58.933Z,18.86
2023-06-04T08:09:58.937Z,18.89
2023-06-04T08:10:58.934Z,18.96
2023-06-04T08:11:58.920Z,18.98
2023-06-04T08:12:58.930Z,19.05
2023-06-04T08:13:58.899Z,19.07
2023-06-04T08:14:58.965Z,19.12
2023-06-04T08:15:58.870Z,19.15
2023-06-04T08:16:58.879Z,19.17
2023-06-04T08:17:58.881Z,19.24
2023-06-04T08:18:58.846Z,19.32
2023-06-04T08:19:58.802Z,19.34
2023-06-04T08:20:58.808Z,19.42
2023-06-04T08:21:58.794Z,19.52
2023-06-04T08:22:58.819Z,19.56
2023-06-04T08:23:58.812Z,19.59
2023-06-04T08:24:58.849Z,19.64
2023-06-04T08:25:58.791Z,19.67
2023-06-04T08:26:58.736Z,19.63
2023-06-04T08:27:58.725Z,19.57
2023-06-04T08:28:59.040Z,19.62
2023-06-04T08:29:58.723Z,19.63
2023-06-04T08:30:58.689Z,19.71
2023-06-04T08:31:58.788Z,19.72
2023-06-04T08:32:58.782Z,19.67
2023-06-04T08:33:58.782Z,19.64
2023-06-04T08:34:58.669Z,19.64
2023-06-04T08:35:58.673Z,19.67
2023-06-04T08:36:58.642Z,19.74
2023-06-04T08:37:58.610Z,19.86
2023-06-04T08:38:58.617Z,19.92
2023-06-04T08:39:58.625Z,19.94
2023-06-04T08:40:58.586Z,19.99
2023-06-04T08:41:58.636Z,19.96
2023-06-04T08:42:58.597Z,19.99
2023-06-04T08:44:01.194Z,20.04
2023-06-04T08:44:58.534Z,20.09
2023-06-04T08:45:58.548Z,20.11
2023-06-04T08:46:58.551Z,20.17
2023-06-04T08:47:58.640Z,20.18
2023-06-04T08:49:00.890Z,20.19
2023-06-04T08:49:58.557Z,20.25
2023-06-04T08:50:58.553Z,20.25
2023-06-04T08:51:58.464Z,20.26
2023-06-04T08:52:58.584Z,20.36
2023-06-04T08:53:58.506Z,20.48
2023-06-04T08:54:58.448Z,20.52
2023-06-04T08:55:58.521Z,20.55
2023-06-04T08:56:58.460Z,20.58
2023-06-04T08:57:58.535Z,20.64
2023-06-04T08:58:58.402Z,20.60
2023-06-04T08:59:58.391Z,20.56
2023-06-04T09:00:58.397Z,20.50
2023-06-04T09:01:58.419Z,20.46
2023-06-04T09:02:58.477Z,20.44
2023-06-04T09:03:58.424Z,20.42
2023-06-04T09:04:58.432Z,20.50
2023-06-04T09:05:58.314Z,20.58
2023-06-04T09:06:58.319Z,20.64
2023-06-04T09:07:58.294Z,20.70
2023-06-04T09:08:58.608Z,20.77
2023-06-04T09:10:11.442Z,20.75
2023-06-04T09:10:58.253Z,20.71
2023-06-04T09:11:58.396Z,20.71
2023-06-04T09:12:58.309Z,20.74
2023-06-04T09:13:58.253Z,20.80
2023-06-04T09:14:58.237Z,20.82
2023-06-04T09:15:58.253Z,20.82
2023-06-04T09:16:58.189Z,20.80
2023-06-04T09:17:58.219Z,20.77
2023-06-04T09:18:58.189Z,20.85
2023-06-04T09:19:58.211Z,20.86
2023-06-04T09:20:58.157Z,20.89
2023-06-04T09:21:58.174Z,20.86
2023-06-04T09:22:58.146Z,20.89
2023-06-04T09:23:58.177Z,20.90
2023-06-04T09:24:58.117Z,20.92
2023-06-04T09:25:58.092Z,20.97
2023-06-04T09:26:58.157Z,21.03
2023-06-04T09:27:58.073Z,21.01
2023-06-04T09:28:58.092Z,21.01
2023-06-04T09:29:58.107Z,21.04
2023-06-04T09:30:58.063Z,21.10
2023-06-04T09:31:58.038Z,21.03
2023-06-04T09:32:58.054Z,21.01
2023-06-04T09:33:58.039Z,21.08
2023-06-04T09:34:58.081Z,21.18
2023-06-04T09:35:58.024Z,21.26
2023-06-04T09:36:58.004Z,21.25
2023-06-04T09:37:58.127Z,21.19
2023-06-04T09:38:57.950Z,21.19
2023-06-04T09:39:57.960Z,21.22
2023-06-04T09:40:57.962Z,21.26
2023-06-04T09:41:57.936Z,21.32
2023-06-04T09:42:57.916Z,21.43
2023-06-04T09:43:57.961Z,21.50
2023-06-04T09:44:57.897Z,21.59
2023-06-04T09:45:57.950Z,21.65
2023-06-04T09:46:58.101Z,21.60
2023-06-04T09:47:57.937Z,21.59
2023-06-04T09:48:57.866Z,21.59
2023-06-04T09:49:57.918Z,21.69
2023-06-04T09:50:57.852Z,21.77
2023-06-04T09:51:57.921Z,21.85
2023-06-04T09:52:57.863Z,21.82
2023-06-04T09:53:57.844Z,21.84
2023-06-04T09:54:57.834Z,21.91
2023-06-04T09:55:57.773Z,21.96
2023-06-04T09:56:57.816Z,21.84
2023-06-04T09:57:57.783Z,21.80
2023-06-04T09:58:57.777Z,21.81
2023-06-04T09:59:57.758Z,21.88
2023-06-04T10:00:57.756Z,21.98
2023-06-04T10:01:57.765Z,21.97
2023-06-04T10:02:57.853Z,21.90
2023-06-04T10:03:57.725Z,21.82
2023-06-04T10:04:57.735Z,21.77
2023-06-04T10:05:57.717Z,21.75
2023-06-04T10:06:57.687Z,21.74
2023-06-04T10:07:57.727Z,21.75
2023-06-04T10:08:57.719Z,21.80
2023-06-04T10:09:57.710Z,21.90
2023-06-04T10:10:57.652Z,22.03
2023-06-04T10:11:57.749Z,22.11
2023-06-04T10:12:57.710Z,22.13
2023-06-04T10:13:57.660Z,22.21
2023-06-04T10:14:57.579Z,22.33
2023-06-04T10:15:57.644Z,22.43
2023-06-04T10:16:57.629Z,22.44
2023-06-04T10:17:57.700Z,22.37
2023-06-04T10:18:57.600Z,22.28
2023-06-04T10:19:57.594Z,22.13
2023-06-04T10:20:57.579Z,22.07
2023-06-04T10:21:57.561Z,22.03
2023-06-04T10:22:57.590Z,22.04
2023-06-04T10:23:57.593Z,22.15
2023-06-04T10:24:57.543Z,22.27
2023-06-04T10:25:57.598Z,22.34
2023-06-04T10:26:57.513Z,22.53
2023-06-04T10:27:57.463Z,22.68
2023-06-04T10:28:57.457Z,22.70
2023-06-04T10:29:57.501Z,22.67
2023-06-04T10:30:57.455Z,22.59
2023-06-04T10:31:57.473Z,22.48
2023-06-04T10:32:57.468Z,22.36
2023-06-04T10:33:57.437Z,22.31
2023-06-04T10:34:57.404Z,22.36
2023-06-04T10:35:57.411Z,22.30
2023-06-04T10:36:57.399Z,22.28
2023-06-04T10:37:57.374Z,22.21
2023-06-04T10:38:57.402Z,22.19
2023-06-04T10:39:57.397Z,22.22
2023-06-04T10:40:57.338Z,22.23
2023-06-04T10:41:57.348Z,22.28
2023-06-04T10:42:57.343Z,22.33
2023-06-04T10:43:57.332Z,22.36
2023-06-04T10:44:58.252Z,22.40
2023-06-04T10:45:57.333Z,22.49
2023-06-04T10:46:57.328Z,22.61
2023-06-04T10:47:57.313Z,22.76
2023-06-04T10:48:57.273Z,22.93
2023-06-04T10:49:57.280Z,23.04
2023-06-04T10:50:57.363Z,23.13
2023-06-04T10:51:57.252Z,23.22
2023-06-04T10:52:57.322Z,23.21
2023-06-04T10:53:57.223Z,23.17
2023-06-04T10:54:57.280Z,23.23
2023-06-04T10:55:57.220Z,23.29
2023-06-04T10:56:57.229Z,23.45
2023-06-04T10:57:57.223Z,23.46
2023-06-04T10:58:57.234Z,23.33
2023-06-04T10:59:57.209Z,23.11
2023-06-04T11:00:57.159Z,23.11
2023-06-04T11:01:57.323Z,22.91
2023-06-04T11:02:58.153Z,22.78
2023-06-04T11:03:57.216Z,22.70
2023-06-04T11:04:57.182Z,22.64
2023-06-04T11:05:57.147Z,22.56
2023-06-04T11:06:57.121Z,22.51
2023-06-04T11:07:57.131Z,22.48
2023-06-04T11:08:57.088Z,22.48
2023-06-04T11:09:57.097Z,22.53
2023-06-04T11:10:57.116Z,22.64
2023-06-04T11:11:57.079Z,22.77
2023-06-04T11:12:57.105Z,22.89
2023-06-04T11:13:57.110Z,23.06
2023-06-04T11:14:57.034Z,23.17
2023-06-04T11:15:57.307Z,23.22
2023-06-04T11:16:57.043Z,23.21
2023-06-04T11:17:57.138Z,23.31
2023-06-04T11:18:57.093Z,23.36
2023-06-04T11:19:57.160Z,23.56
2023-06-04T11:20:57.053Z,23.81
2023-06-04T11:21:57.060Z,23.86
2023-06-04T11:22:57.207Z,23.76
2023-06-04T11:23:57.052Z,23.66
2023-06-04T11:24:57.003Z,23.59
2023-06-04T11:25:57.009Z,23.51
2023-06-04T11:27:09.178Z,23.49
2023-06-04T11:27:56.992Z,23.41
2023-06-04T11:28:57.075Z,23.36
2023-06-04T11:29:58.326Z,23.42
2023-06-04T11:30:56.940Z,23.49
2023-06-04T11:31:57.023Z,23.54
2023-06-04T11:32:56.929Z,23.59
2023-06-04T11:33:56.890Z,23.52
2023-06-04T11:34:56.853Z,23.49
2023-06-04T11:35:56.859Z,23.33
2023-06-04T11:36:56.873Z,23.44
2023-06-04T11:37:56.921Z,23.48
2023-06-04T11:38:56.948Z,23.49
2023-06-04T11:39:56.903Z,23.66
2023-06-04T11:40:56.836Z,23.73
2023-06-04T11:41:56.793Z,23.73
2023-06-04T11:42:56.897Z,23.76
2023-06-04T11:43:56.856Z,23.85
2023-06-04T11:44:56.866Z,23.89
2023-06-04T11:45:56.784Z,23.86
2023-06-04T11:46:56.789Z,23.85
2023-06-04T11:47:56.912Z,23.91
2023-06-04T11:48:56.811Z,24.03
2023-06-04T11:49:56.820Z,24.23
2023-06-04T11:50:56.760Z,24.25
2023-06-04T11:51:56.728Z,24.15
2023-06-04T11:52:56.718Z,24.07
2023-06-04T11:53:56.789Z,24.10
2023-06-04T11:54:56.693Z,24.07
2023-06-04T11:55:56.692Z,23.91
2023-06-04T11:56:56.766Z,23.89
2023-06-04T11:57:56.737Z,24.11
2023-06-04T11:58:56.713Z,24.23
2023-06-04T11:59:56.720Z,24.41
2023-06-04T12:00:56.678Z,24.37
2023-06-04T12:01:56.697Z,24.28
2023-06-04T12:02:56.728Z,24.43
2023-06-04T12:03:56.675Z,24.36
2023-06-04T12:04:56.680Z,24.43
2023-06-04T12:05:56.648Z,24.58
2023-06-04T12:06:56.640Z,24.51
2023-06-04T12:07:56.647Z,24.53
2023-06-04T12:08:56.657Z,24.51
2023-06-04T12:09:56.577Z,24.36
2023-06-04T12:10:56.585Z,24.25
2023-06-04T12:11:56.579Z,24.34
2023-06-04T12:12:56.689Z,24.44
2023-06-04T12:13:56.523Z,24.52
2023-06-04T12:14:56.544Z,24.53
2023-06-04T12:15:56.586Z,24.38
2023-06-04T12:16:56.546Z,24.37
2023-06-04T12:17:56.600Z,24.36
2023-06-04T12:18:56.483Z,24.26
2023-06-04T12:19:56.822Z,24.26
2023-06-04T12:20:56.530Z,24.33
2023-06-04T12:21:56.525Z,24.43
2023-06-04T12:22:56.454Z,24.59
2023-06-04T12:23:56.577Z,24.62
2023-06-04T12:24:56.474Z,24.70
2023-06-04T12:25:56.462Z,24.85
2023-06-04T12:26:56.415Z,24.70
2023-06-04T12:27:56.389Z,24.52
2023-06-04T12:28:56.486Z,24.48
2023-06-04T12:29:56.435Z,24.29
2023-06-04T12:30:56.474Z,24.04
2023-06-04T12:31:56.412Z,23.96
2023-06-04T12:32:56.445Z,23.98
2023-06-04T12:33:56.361Z,23.98
2023-06-04T12:34:56.458Z,24.01
2023-06-04T12:35:56.329Z,24.15
2023-06-04T12:36:56.475Z,24.19
2023-06-04T12:37:56.324Z,24.29
2023-06-04T12:38:56.331Z,24.43
2023-06-04T12:39:56.379Z,24.53
2023-06-04T12:40:56.293Z,24.63
2023-06-04T12:41:56.336Z,24.76
2023-06-04T12:42:56.302Z,24.82
2023-06-04T12:43:56.278Z,24.86
2023-06-04T12:44:56.323Z,24.76
2023-06-04T12:45:56.269Z,24.70
2023-06-04T12:46:56.330Z,24.66
2023-06-04T12:47:56.330Z,24.91
2023-06-04T12:48:56.215Z,25.14
2023-06-04T12:49:56.260Z,25.18
2023-06-04T12:50:56.258Z,25.34
2023-06-04T12:51:56.205Z,25.46